sensor_id;sensor_type;location;lat;lon;timestamp;temperature;humidity
19580;DHT22;9936;51.040;13.918;2023-02-13T00:02:23;5.80;99.90
19580;DHT22;9936;51.040;13.918;2023-02-13T00:06:09;5.70;99.90
19580;DHT22;9936;51.040;13.918;2023-02-13T00:09:54;5.70;99.90
19580;DHT22;9936;51.040;13.918;2023-02-13T00:13:40;5.70;99.90
19580;DHT22;9936;51.040;13.918;2023-02-13T00:17:26;5.70;99.90
19580;DHT22;9936;51.040;13.918;2023-02-13T00:21:12;5.60;99.90
19580;DHT22;9936;51.040;13.918;2023-02-13T00:24:58;5.70;99.90
19580;DHT22;9936;51.040;13.918;2023-02-13T00:28:44;5.70;99.90
19580;DHT22;9936;51.040;13.918;2023-02-13T00:32:30;5.60;99.90
19580;DHT22;9936;51.040;13.918;2023-02-13T00:36:21;5.60;99.90
19580;DHT22;9936;51.040;13.918;2023-02-13T00:40:07;5.50;99.90
19580;DHT22;9936;51.040;13.918;2023-02-13T00:43:53;5.60;99.90
19580;DHT22;9936;51.040;13.918;2023-02-13T00:47:38;5.60;99.90
19580;DHT22;9936;51.040;13.918;2023-02-13T00:51:24;5.50;99.90
19580;DHT22;9936;51.040;13.918;2023-02-13T00:55:10;5.50;99.90
19580;DHT22;9936;51.040;13.918;2023-02-13T00:58:56;5.50;99.90
19580;DHT22;9936;51.040;13.918;2023-02-13T01:02:42;5.60;99.90
19580;DHT22;9936;51.040;13.918;2023-02-13T01:06:27;5.60;99.90
19580;DHT22;9936;51.040;13.918;2023-02-13T01:10:13;5.60;99.90
19580;DHT22;9936;51.040;13.918;2023-02-13T01:13:59;5.60;99.90
19580;DHT22;9936;51.040;13.918;2023-02-13T01:17:45;5.60;99.90
19580;DHT22;9936;51.040;13.918;2023-02-13T01:21:31;5.60;99.90
19580;DHT22;9936;51.040;13.918;2023-02-13T01:25:17;5.50;99.90
19580;DHT22;9936;51.040;13.918;2023-02-13T01:29:03;5.60;99.90
19580;DHT22;9936;51.040;13.918;2023-02-13T01:32:48;5.60;99.90
19580;DHT22;9936;51.040;13.918;2023-02-13T01:36:34;5.70;99.90
19580;DHT22;9936;51.040;13.918;2023-02-13T01:40:20;5.60;99.90
19580;DHT22;9936;51.040;13.918;2023-02-13T01:48:28;5.60;99.90
19580;DHT22;9936;51.040;13.918;2023-02-13T01:52:15;5.60;99.90
19580;DHT22;9936;51.040;13.918;2023-02-13T01:56:07;5.60;99.90
19580;DHT22;9936;51.040;13.918;2023-02-13T02:00:03;5.60;99.90
19580;DHT22;9936;51.040;13.918;2023-02-13T02:03:55;5.60;99.90
19580;DHT22;9936;51.040;13.918;2023-02-13T02:07:45;5.60;99.90
19580;DHT22;9936;51.040;13.918;2023-02-13T02:15:41;5.60;99.90
19580;DHT22;9936;51.040;13.918;2023-02-13T02:23:51;5.60;99.90
19580;DHT22;9936;51.040;13.918;2023-02-13T02:28:01;5.60;99.90
19580;DHT22;9936;51.040;13.918;2023-02-13T02:36:21;5.60;99.90
19580;DHT22;9936;51.040;13.918;2023-02-13T08:14:06;5.10;99.90
19580;DHT22;9936;51.040;13.918;2023-02-13T08:17:51;5.30;99.90
19580;DHT22;9936;51.040;13.918;2023-02-13T08:21:37;5.20;99.90
19580;DHT22;9936;51.040;13.918;2023-02-13T08:25:24;5.20;99.90
19580;DHT22;9936;51.040;13.918;2023-02-13T08:29:10;5.20;99.90
19580;DHT22;9936;51.040;13.918;2023-02-13T08:32:56;5.20;99.90
19580;DHT22;9936;51.040;13.918;2023-02-13T08:36:41;5.30;99.90
19580;DHT22;9936;51.040;13.918;2023-02-13T08:40:27;5.10;99.90
19580;DHT22;9936;51.040;13.918;2023-02-13T08:44:13;5.10;99.90
19580;DHT22;9936;51.040;13.918;2023-02-13T08:47:59;5.20;99.90
19580;DHT22;9936;51.040;13.918;2023-02-13T08:51:44;5.10;99.90
19580;DHT22;9936;51.040;13.918;2023-02-13T08:55:30;5.20;99.90
19580;DHT22;9936;51.040;13.918;2023-02-13T08:59:16;5.10;99.90
19580;DHT22;9936;51.040;13.918;2023-02-13T09:03:03;5.20;99.90
19580;DHT22;9936;51.040;13.918;2023-02-13T09:06:48;5.20;99.90
19580;DHT22;9936;51.040;13.918;2023-02-13T09:10:34;5.20;99.90
19580;DHT22;9936;51.040;13.918;2023-02-13T09:14:19;5.20;99.90
19580;DHT22;9936;51.040;13.918;2023-02-13T09:18:06;5.30;99.90
19580;DHT22;9936;51.040;13.918;2023-02-13T09:21:51;5.30;99.90
19580;DHT22;9936;51.040;13.918;2023-02-13T09:25:37;5.40;99.90
19580;DHT22;9936;51.040;13.918;2023-02-13T09:29:22;5.20;99.90
19580;DHT22;9936;51.040;13.918;2023-02-13T09:33:09;5.30;99.90
19580;DHT22;9936;51.040;13.918;2023-02-13T09:36:56;5.40;99.90
19580;DHT22;9936;51.040;13.918;2023-02-13T09:40:48;5.20;99.90
19580;DHT22;9936;51.040;13.918;2023-02-13T09:44:39;5.30;99.90
19580;DHT22;9936;51.040;13.918;2023-02-13T09:48:33;5.40;99.90
19580;DHT22;9936;51.040;13.918;2023-02-13T09:52:19;5.40;99.90
19580;DHT22;9936;51.040;13.918;2023-02-13T09:56:13;5.30;99.90
19580;DHT22;9936;51.040;13.918;2023-02-13T10:08:27;5.40;99.90
19580;DHT22;9936;51.040;13.918;2023-02-13T10:12:29;5.40;99.90
19580;DHT22;9936;51.040;13.918;2023-02-13T10:16:29;5.40;99.90
19580;DHT22;9936;51.040;13.918;2023-02-13T10:20:34;5.50;99.90
19580;DHT22;9936;51.040;13.918;2023-02-13T10:24:43;5.50;99.90
19580;DHT22;9936;51.040;13.918;2023-02-13T10:33:11;5.50;99.90
19580;DHT22;9936;51.040;13.918;2023-02-13T10:37:15;5.60;99.90
19580;DHT22;9936;51.040;13.918;2023-02-13T10:41:07;5.70;99.90
19580;DHT22;9936;51.040;13.918;2023-02-13T10:45:32;5.70;99.90
19580;DHT22;9936;51.040;13.918;2023-02-13T10:49:40;5.80;99.90
19580;DHT22;9936;51.040;13.918;2023-02-13T10:58:12;5.80;99.90
19580;DHT22;9936;51.040;13.918;2023-02-13T11:02:25;5.90;99.90
19580;DHT22;9936;51.040;13.918;2023-02-13T11:06:14;5.90;99.90
19580;DHT22;9936;51.040;13.918;2023-02-13T11:10:05;5.90;99.90
19580;DHT22;9936;51.040;13.918;2023-02-13T11:17:55;6.00;99.90
19580;DHT22;9936;51.040;13.918;2023-02-13T11:21:41;6.00;99.90
19580;DHT22;9936;51.040;13.918;2023-02-13T11:25:28;6.00;99.90
19580;DHT22;9936;51.040;13.918;2023-02-13T11:29:21;6.00;99.90
19580;DHT22;9936;51.040;13.918;2023-02-13T11:33:26;6.00;99.90
19580;DHT22;9936;51.040;13.918;2023-02-13T11:41:18;6.00;99.90
19580;DHT22;9936;51.040;13.918;2023-02-13T11:45:06;6.00;99.90
19580;DHT22;9936;51.040;13.918;2023-02-13T11:49:22;6.00;99.90
19580;DHT22;9936;51.040;13.918;2023-02-13T11:53:18;6.00;99.90
19580;DHT22;9936;51.040;13.918;2023-02-13T11:57:18;5.90;99.90
19580;DHT22;9936;51.040;13.918;2023-02-13T12:01:31;5.90;99.90
19580;DHT22;9936;51.040;13.918;2023-02-13T12:05:22;5.90;99.90
19580;DHT22;9936;51.040;13.918;2023-02-13T12:09:14;6.20;99.90
19580;DHT22;9936;51.040;13.918;2023-02-13T12:13:14;6.50;99.90
19580;DHT22;9936;51.040;13.918;2023-02-13T12:17:16;6.70;99.90
19580;DHT22;9936;51.040;13.918;2023-02-13T12:33:20;7.30;99.90
19580;DHT22;9936;51.040;13.918;2023-02-13T12:37:18;7.40;99.90
19580;DHT22;9936;51.040;13.918;2023-02-13T12:41:20;7.50;99.90
19580;DHT22;9936;51.040;13.918;2023-02-13T12:53:26;7.40;99.90
19580;DHT22;9936;51.040;13.918;2023-02-13T12:57:35;7.50;99.90
19580;DHT22;9936;51.040;13.918;2023-02-13T13:01:49;7.60;99.90
19580;DHT22;9936;51.040;13.918;2023-02-13T13:22:18;7.50;99.90
19580;DHT22;9936;51.040;13.918;2023-02-13T13:30:23;7.50;99.90
19580;DHT22;9936;51.040;13.918;2023-02-13T13:34:19;7.60;99.90
19580;DHT22;9936;51.040;13.918;2023-02-13T13:42:39;7.60;99.90
19580;DHT22;9936;51.040;13.918;2023-02-13T13:46:43;7.50;99.90
19580;DHT22;9936;51.040;13.918;2023-02-13T13:50:38;7.30;99.90
19580;DHT22;9936;51.040;13.918;2023-02-13T13:54:32;7.30;99.90
19580;DHT22;9936;51.040;13.918;2023-02-13T13:58:47;7.30;99.90
19580;DHT22;9936;51.040;13.918;2023-02-13T14:02:44;7.40;99.90
19580;DHT22;9936;51.040;13.918;2023-02-13T14:22:30;7.20;99.90
19580;DHT22;9936;51.040;13.918;2023-02-13T14:30:06;7.10;99.90
19580;DHT22;9936;51.040;13.918;2023-02-13T14:34:19;7.10;99.90
19580;DHT22;9936;51.040;13.918;2023-02-13T15:11:00;7.00;99.90
19580;DHT22;9936;51.040;13.918;2023-02-13T15:14:30;7.00;99.90
19580;DHT22;9936;51.040;13.918;2023-02-13T15:18:29;7.00;99.90
19580;DHT22;9936;51.040;13.918;2023-02-13T15:22:57;6.90;99.90
19580;DHT22;9936;51.040;13.918;2023-02-13T15:27:31;6.80;99.90
19580;DHT22;9936;51.040;13.918;2023-02-13T15:31:22;6.70;99.90
19580;DHT22;9936;51.040;13.918;2023-02-13T15:35:25;6.70;99.90
19580;DHT22;9936;51.040;13.918;2023-02-13T15:39:16;6.60;99.90
19580;DHT22;9936;51.040;13.918;2023-02-13T15:43:03;6.60;99.90
19580;DHT22;9936;51.040;13.918;2023-02-13T15:47:13;6.60;99.90
19580;DHT22;9936;51.040;13.918;2023-02-13T15:51:00;6.60;99.90
19580;DHT22;9936;51.040;13.918;2023-02-13T15:54:52;6.60;99.90
19580;DHT22;9936;51.040;13.918;2023-02-13T15:58:37;6.60;99.90
19580;DHT22;9936;51.040;13.918;2023-02-13T16:02:29;6.70;99.90
19580;DHT22;9936;51.040;13.918;2023-02-13T16:06:19;6.80;99.90
19580;DHT22;9936;51.040;13.918;2023-02-13T16:10:34;6.80;99.90
19580;DHT22;9936;51.040;13.918;2023-02-13T16:14:21;6.80;99.90
19580;DHT22;9936;51.040;13.918;2023-02-13T16:18:17;6.90;99.90
19580;DHT22;9936;51.040;13.918;2023-02-13T16:22:28;6.90;99.90
19580;DHT22;9936;51.040;13.918;2023-02-13T16:26:14;6.80;99.90
19580;DHT22;9936;51.040;13.918;2023-02-13T16:30:26;6.80;99.90
19580;DHT22;9936;51.040;13.918;2023-02-13T16:34:14;6.80;99.90
19580;DHT22;9936;51.040;13.918;2023-02-13T16:38:00;6.80;99.90
19580;DHT22;9936;51.040;13.918;2023-02-13T16:41:50;6.80;99.90
19580;DHT22;9936;51.040;13.918;2023-02-13T16:45:36;6.80;99.90
19580;DHT22;9936;51.040;13.918;2023-02-13T16:49:33;6.70;99.90
19580;DHT22;9936;51.040;13.918;2023-02-13T16:53:20;6.60;99.90
19580;DHT22;9936;51.040;13.918;2023-02-13T17:00:57;6.30;99.90
19580;DHT22;9936;51.040;13.918;2023-02-13T17:04:49;6.30;99.90
19580;DHT22;9936;51.040;13.918;2023-02-13T17:08:35;6.10;99.90
19580;DHT22;9936;51.040;13.918;2023-02-13T17:12:22;6.10;99.90
19580;DHT22;9936;51.040;13.918;2023-02-13T17:16:08;6.20;99.90
19580;DHT22;9936;51.040;13.918;2023-02-13T17:19:54;6.10;99.90
19580;DHT22;9936;51.040;13.918;2023-02-13T17:23:40;6.10;99.90
19580;DHT22;9936;51.040;13.918;2023-02-13T17:27:28;6.20;99.90
19580;DHT22;9936;51.040;13.918;2023-02-13T17:36:02;6.20;99.90
19580;DHT22;9936;51.040;13.918;2023-02-13T17:39:49;6.20;99.90
19580;DHT22;9936;51.040;13.918;2023-02-13T17:43:34;6.30;99.90
19580;DHT22;9936;51.040;13.918;2023-02-13T17:47:21;6.30;99.90
19580;DHT22;9936;51.040;13.918;2023-02-13T17:51:11;6.40;99.90
19580;DHT22;9936;51.040;13.918;2023-02-13T17:54:58;6.40;99.90
19580;DHT22;9936;51.040;13.918;2023-02-13T17:59:13;6.30;99.90
19580;DHT22;9936;51.040;13.918;2023-02-13T18:03:00;6.40;99.90
19580;DHT22;9936;51.040;13.918;2023-02-13T18:06:50;6.40;99.90
19580;DHT22;9936;51.040;13.918;2023-02-13T18:10:38;6.40;99.90
19580;DHT22;9936;51.040;13.918;2023-02-13T18:14:24;6.40;99.90
19580;DHT22;9936;51.040;13.918;2023-02-13T18:18:11;6.40;99.90
19580;DHT22;9936;51.040;13.918;2023-02-13T18:22:04;6.40;99.90
19580;DHT22;9936;51.040;13.918;2023-02-13T18:25:50;6.40;99.90
19580;DHT22;9936;51.040;13.918;2023-02-13T18:34:48;6.40;99.90
19580;DHT22;9936;51.040;13.918;2023-02-13T18:39:19;6.30;99.90
19580;DHT22;9936;51.040;13.918;2023-02-13T18:43:05;6.30;99.90
19580;DHT22;9936;51.040;13.918;2023-02-13T18:46:50;6.30;99.90
19580;DHT22;9936;51.040;13.918;2023-02-13T18:50:39;6.30;99.90
19580;DHT22;9936;51.040;13.918;2023-02-13T18:54:25;6.10;99.90
19580;DHT22;9936;51.040;13.918;2023-02-13T18:58:12;6.10;99.90
19580;DHT22;9936;51.040;13.918;2023-02-13T19:02:05;6.00;99.90
19580;DHT22;9936;51.040;13.918;2023-02-13T19:06:12;5.90;99.90
19580;DHT22;9936;51.040;13.918;2023-02-13T19:09:58;5.80;99.90
19580;DHT22;9936;51.040;13.918;2023-02-13T19:13:44;5.70;99.90
19580;DHT22;9936;51.040;13.918;2023-02-13T19:17:30;5.60;99.90
19580;DHT22;9936;51.040;13.918;2023-02-13T19:21:49;5.70;99.90
19580;DHT22;9936;51.040;13.918;2023-02-13T19:25:55;5.80;99.90
19580;DHT22;9936;51.040;13.918;2023-02-13T19:29:42;6.00;99.90
19580;DHT22;9936;51.040;13.918;2023-02-13T19:33:27;6.00;99.90
19580;DHT22;9936;51.040;13.918;2023-02-13T19:37:13;6.00;99.90
19580;DHT22;9936;51.040;13.918;2023-02-13T19:41:09;6.00;99.90
19580;DHT22;9936;51.040;13.918;2023-02-13T19:44:55;6.10;99.90
19580;DHT22;9936;51.040;13.918;2023-02-13T19:48:52;6.10;99.90
19580;DHT22;9936;51.040;13.918;2023-02-13T19:52:38;6.10;99.90
19580;DHT22;9936;51.040;13.918;2023-02-13T19:56:26;6.10;99.90
19580;DHT22;9936;51.040;13.918;2023-02-13T20:00:13;6.10;99.90
19580;DHT22;9936;51.040;13.918;2023-02-13T20:03:58;6.10;99.90
19580;DHT22;9936;51.040;13.918;2023-02-13T20:07:44;6.10;99.90
19580;DHT22;9936;51.040;13.918;2023-02-13T20:11:30;6.10;99.90
19580;DHT22;9936;51.040;13.918;2023-02-13T20:15:16;6.00;99.90
19580;DHT22;9936;51.040;13.918;2023-02-13T20:19:06;6.00;99.90
19580;DHT22;9936;51.040;13.918;2023-02-13T20:22:55;6.10;99.90
19580;DHT22;9936;51.040;13.918;2023-02-13T20:38:26;5.90;99.90
19580;DHT22;9936;51.040;13.918;2023-02-13T20:42:12;5.90;99.90
19580;DHT22;9936;51.040;13.918;2023-02-13T20:45:58;5.90;99.90
19580;DHT22;9936;51.040;13.918;2023-02-13T20:49:43;5.80;99.90
19580;DHT22;9936;51.040;13.918;2023-02-13T20:53:29;5.90;99.90
19580;DHT22;9936;51.040;13.918;2023-02-13T20:57:15;5.70;99.90
19580;DHT22;9936;51.040;13.918;2023-02-13T21:01:01;5.90;99.90
19580;DHT22;9936;51.040;13.918;2023-02-13T21:04:47;5.90;99.90
19580;DHT22;9936;51.040;13.918;2023-02-13T21:08:32;5.80;99.90
19580;DHT22;9936;51.040;13.918;2023-02-13T21:12:18;5.90;99.90
19580;DHT22;9936;51.040;13.918;2023-02-13T21:16:05;5.90;99.90
19580;DHT22;9936;51.040;13.918;2023-02-13T21:19:52;5.90;99.90
19580;DHT22;9936;51.040;13.918;2023-02-13T21:23:41;5.90;99.90
19580;DHT22;9936;51.040;13.918;2023-02-13T21:27:27;6.00;99.90
19580;DHT22;9936;51.040;13.918;2023-02-13T21:31:19;5.90;99.90
19580;DHT22;9936;51.040;13.918;2023-02-13T21:35:06;5.90;99.90
19580;DHT22;9936;51.040;13.918;2023-02-13T21:38:51;5.90;99.90
19580;DHT22;9936;51.040;13.918;2023-02-13T21:42:37;5.90;99.90
19580;DHT22;9936;51.040;13.918;2023-02-13T21:46:26;5.80;99.90
19580;DHT22;9936;51.040;13.918;2023-02-13T21:50:12;5.80;99.90
19580;DHT22;9936;51.040;13.918;2023-02-13T21:53:57;5.90;99.90
19580;DHT22;9936;51.040;13.918;2023-02-13T21:57:43;5.80;99.90
19580;DHT22;9936;51.040;13.918;2023-02-13T22:01:31;5.90;99.90
19580;DHT22;9936;51.040;13.918;2023-02-13T22:05:18;5.90;99.90
19580;DHT22;9936;51.040;13.918;2023-02-13T22:09:09;5.80;99.90
19580;DHT22;9936;51.040;13.918;2023-02-13T22:12:55;5.70;99.90
19580;DHT22;9936;51.040;13.918;2023-02-13T22:16:40;5.70;99.90
19580;DHT22;9936;51.040;13.918;2023-02-13T22:20:26;5.70;99.90
19580;DHT22;9936;51.040;13.918;2023-02-13T22:24:12;5.70;99.90
19580;DHT22;9936;51.040;13.918;2023-02-13T22:27:58;5.70;99.90
19580;DHT22;9936;51.040;13.918;2023-02-13T22:31:45;5.70;99.90
19580;DHT22;9936;51.040;13.918;2023-02-13T22:35:31;5.70;99.90
19580;DHT22;9936;51.040;13.918;2023-02-13T22:39:16;5.70;99.90
19580;DHT22;9936;51.040;13.918;2023-02-13T22:43:03;5.70;99.90
19580;DHT22;9936;51.040;13.918;2023-02-13T22:46:49;5.70;99.90
19580;DHT22;9936;51.040;13.918;2023-02-13T22:50:34;5.80;99.90
19580;DHT22;9936;51.040;13.918;2023-02-13T22:54:20;5.60;99.90
19580;DHT22;9936;51.040;13.918;2023-02-13T22:58:05;5.70;99.90
19580;DHT22;9936;51.040;13.918;2023-02-13T23:01:51;5.70;99.90
19580;DHT22;9936;51.040;13.918;2023-02-13T23:05:40;5.70;99.90
19580;DHT22;9936;51.040;13.918;2023-02-13T23:09:26;5.70;99.90
19580;DHT22;9936;51.040;13.918;2023-02-13T23:13:12;5.60;99.90
19580;DHT22;9936;51.040;13.918;2023-02-13T23:16:58;5.60;99.90
19580;DHT22;9936;51.040;13.918;2023-02-13T23:21:06;5.70;99.90
19580;DHT22;9936;51.040;13.918;2023-02-13T23:24:52;5.60;99.90
19580;DHT22;9936;51.040;13.918;2023-02-13T23:28:37;5.60;99.90
19580;DHT22;9936;51.040;13.918;2023-02-13T23:32:24;5.70;99.90
19580;DHT22;9936;51.040;13.918;2023-02-13T23:36:10;5.60;99.90
19580;DHT22;9936;51.040;13.918;2023-02-13T23:39:55;5.50;99.90
19580;DHT22;9936;51.040;13.918;2023-02-13T23:43:41;5.60;99.90
19580;DHT22;9936;51.040;13.918;2023-02-13T23:47:27;5.60;99.90
19580;DHT22;9936;51.040;13.918;2023-02-13T23:51:12;5.60;99.90
19580;DHT22;9936;51.040;13.918;2023-02-13T23:54:58;5.60;99.90
19580;DHT22;9936;51.040;13.918;2023-02-13T23:58:49;5.60;99.90
